sensor_id;sensor_type;location;lat;lon;timestamp;pressure;altitude;pressure_sealevel;temperature;humidity
10474;BME280;5284;50.446;7.904;2023-07-13T00:04:25;98434.09;;;18.42;71.50
10474;BME280;5284;50.446;7.904;2023-07-13T00:09:28;98427.38;;;18.38;73.01
10474;BME280;5284;50.446;7.904;2023-07-13T00:14:31;98432.44;;;18.33;73.32
10474;BME280;5284;50.446;7.904;2023-07-13T00:19:35;98429.13;;;18.23;73.33
10474;BME280;5284;50.446;7.904;2023-07-13T00:24:38;98425.66;;;18.15;73.13
10474;BME280;5284;50.446;7.904;2023-07-13T00:29:43;98424.34;;;18.11;71.02
10474;BME280;5284;50.446;7.904;2023-07-13T00:34:48;98426.25;;;18.02;71.93
10474;BME280;5284;50.446;7.904;2023-07-13T00:39:52;98424.63;;;17.93;72.83
10474;BME280;5284;50.446;7.904;2023-07-13T00:46:02;98434.75;;;17.91;71.39
10474;BME280;5284;50.446;7.904;2023-07-13T00:50:31;98428.78;;;17.81;71.78
10474;BME280;5284;50.446;7.904;2023-07-13T00:55:34;98430.66;;;17.73;71.99
10474;BME280;5284;50.446;7.904;2023-07-13T01:00:38;98436.94;;;17.65;70.14
10474;BME280;5284;50.446;7.904;2023-07-13T01:05:43;98435.66;;;17.53;71.63
10474;BME280;5284;50.446;7.904;2023-07-13T01:10:51;98430.16;;;17.39;74.47
10474;BME280;5284;50.446;7.904;2023-07-13T01:15:56;98422.13;;;17.23;74.51
10474;BME280;5284;50.446;7.904;2023-07-13T01:21:04;98413.78;;;17.02;76.07
10474;BME280;5284;50.446;7.904;2023-07-13T01:26:07;98424.44;;;16.88;77.58
10474;BME280;5284;50.446;7.904;2023-07-13T01:31:11;98416.41;;;16.72;78.44
10474;BME280;5284;50.446;7.904;2023-07-13T01:36:16;98422.47;;;16.58;80.41
10474;BME280;5284;50.446;7.904;2023-07-13T01:41:18;98416.41;;;16.32;82.73
10474;BME280;5284;50.446;7.904;2023-07-13T01:46:22;98419.28;;;16.22;84.50
10474;BME280;5284;50.446;7.904;2023-07-13T01:51:26;98419.78;;;16.10;83.29
10474;BME280;5284;50.446;7.904;2023-07-13T01:56:29;98414.22;;;16.03;82.72
10474;BME280;5284;50.446;7.904;2023-07-13T02:01:32;98423.97;;;15.88;87.58
10474;BME280;5284;50.446;7.904;2023-07-13T02:06:37;98429.66;;;15.77;88.97
10474;BME280;5284;50.446;7.904;2023-07-13T02:11:39;98428.09;;;15.59;88.80
10474;BME280;5284;50.446;7.904;2023-07-13T02:16:42;98430.56;;;15.44;90.12
10474;BME280;5284;50.446;7.904;2023-07-13T02:21:47;98433.41;;;15.35;90.31
10474;BME280;5284;50.446;7.904;2023-07-13T02:26:51;98428.47;;;15.23;88.88
10474;BME280;5284;50.446;7.904;2023-07-13T02:31:55;98438.66;;;15.11;89.76
10474;BME280;5284;50.446;7.904;2023-07-13T02:36:59;98439.94;;;14.99;90.53
10474;BME280;5284;50.446;7.904;2023-07-13T02:42:02;98436.38;;;14.91;90.47
10474;BME280;5284;50.446;7.904;2023-07-13T02:47:06;98438.84;;;14.84;90.71
10474;BME280;5284;50.446;7.904;2023-07-13T02:52:10;98444.31;;;14.75;91.62
10474;BME280;5284;50.446;7.904;2023-07-13T02:57:13;98443.06;;;14.61;90.91
10474;BME280;5284;50.446;7.904;2023-07-13T03:02:16;98441.19;;;14.54;94.77
10474;BME280;5284;50.446;7.904;2023-07-13T03:07:20;98434.22;;;14.43;93.79
10474;BME280;5284;50.446;7.904;2023-07-13T03:12:25;98436.38;;;14.40;93.27
10474;BME280;5284;50.446;7.904;2023-07-13T03:17:29;98445.91;;;14.34;93.26
10474;BME280;5284;50.446;7.904;2023-07-13T03:22:33;98445.66;;;14.28;93.02
10474;BME280;5284;50.446;7.904;2023-07-13T03:27:36;98446.44;;;14.20;93.28
10474;BME280;5284;50.446;7.904;2023-07-13T03:32:42;98447.75;;;14.16;94.04
10474;BME280;5284;50.446;7.904;2023-07-13T03:37:46;98455.53;;;14.10;93.25
10474;BME280;5284;50.446;7.904;2023-07-13T03:42:53;98456.00;;;14.05;95.16
10474;BME280;5284;50.446;7.904;2023-07-13T03:47:56;98456.63;;;13.99;95.31
10474;BME280;5284;50.446;7.904;2023-07-13T03:53:02;98462.13;;;13.98;95.63
10474;BME280;5284;50.446;7.904;2023-07-13T03:58:30;98470.72;;;14.01;95.37
10474;BME280;5284;50.446;7.904;2023-07-13T04:03:39;98473.78;;;14.06;92.46
10474;BME280;5284;50.446;7.904;2023-07-13T04:08:43;98469.22;;;14.16;93.75
10474;BME280;5284;50.446;7.904;2023-07-13T04:13:47;98478.81;;;14.19;97.39
10474;BME280;5284;50.446;7.904;2023-07-13T04:18:50;98478.31;;;14.23;100.00
10474;BME280;5284;50.446;7.904;2023-07-13T04:23:57;98479.41;;;14.30;100.00
10474;BME280;5284;50.446;7.904;2023-07-13T04:29:00;98478.25;;;14.33;100.00
10474;BME280;5284;50.446;7.904;2023-07-13T04:34:04;98483.69;;;14.23;100.00
10474;BME280;5284;50.446;7.904;2023-07-13T04:39:09;98483.47;;;14.34;100.00
10474;BME280;5284;50.446;7.904;2023-07-13T04:44:12;98486.72;;;14.46;100.00
10474;BME280;5284;50.446;7.904;2023-07-13T04:49:15;98482.81;;;14.58;99.78
10474;BME280;5284;50.446;7.904;2023-07-13T04:54:19;98480.91;;;14.76;100.00
10474;BME280;5284;50.446;7.904;2023-07-13T04:59:22;98481.84;;;14.92;100.00
10474;BME280;5284;50.446;7.904;2023-07-13T05:04:25;98491.34;;;15.04;95.28
10474;BME280;5284;50.446;7.904;2023-07-13T05:09:29;98492.78;;;15.24;91.99
10474;BME280;5284;50.446;7.904;2023-07-13T05:14:32;98498.28;;;15.40;89.82
10474;BME280;5284;50.446;7.904;2023-07-13T05:19:36;98497.00;;;15.60;89.82
10474;BME280;5284;50.446;7.904;2023-07-13T05:24:40;98510.19;;;15.79;87.96
10474;BME280;5284;50.446;7.904;2023-07-13T05:29:43;98500.50;;;16.02;87.38
10474;BME280;5284;50.446;7.904;2023-07-13T05:34:46;98505.41;;;16.30;85.64
10474;BME280;5284;50.446;7.904;2023-07-13T05:39:50;98502.75;;;16.62;85.76
10474;BME280;5284;50.446;7.904;2023-07-13T05:44:54;98501.72;;;16.79;82.76
10474;BME280;5284;50.446;7.904;2023-07-13T05:49:57;98500.50;;;17.13;82.19
10474;BME280;5284;50.446;7.904;2023-07-13T05:55:02;98505.97;;;17.44;81.09
10474;BME280;5284;50.446;7.904;2023-07-13T06:00:07;98512.50;;;17.57;78.75
10474;BME280;5284;50.446;7.904;2023-07-13T06:05:15;98517.75;;;17.89;78.37
10474;BME280;5284;50.446;7.904;2023-07-13T06:10:19;98522.06;;;18.37;75.83
10474;BME280;5284;50.446;7.904;2023-07-13T06:15:22;98525.53;;;18.67;74.73
10474;BME280;5284;50.446;7.904;2023-07-13T06:20:25;98527.63;;;18.80;73.43
10474;BME280;5284;50.446;7.904;2023-07-13T06:25:30;98537.91;;;18.99;72.28
10474;BME280;5284;50.446;7.904;2023-07-13T06:30:32;98528.16;;;19.12;70.33
10474;BME280;5284;50.446;7.904;2023-07-13T06:35:35;98525.91;;;19.38;70.02
10474;BME280;5284;50.446;7.904;2023-07-13T06:40:40;98530.00;;;19.49;68.66
10474;BME280;5284;50.446;7.904;2023-07-13T06:45:44;98534.41;;;19.64;68.33
10474;BME280;5284;50.446;7.904;2023-07-13T06:50:50;98540.56;;;19.58;67.27
10474;BME280;5284;50.446;7.904;2023-07-13T06:55:56;98540.63;;;19.65;67.24
10474;BME280;5284;50.446;7.904;2023-07-13T07:00:59;98541.66;;;19.64;68.32
10474;BME280;5284;50.446;7.904;2023-07-13T07:06:03;98541.00;;;19.62;67.00
10474;BME280;5284;50.446;7.904;2023-07-13T07:11:13;98546.69;;;19.67;67.94
10474;BME280;5284;50.446;7.904;2023-07-13T07:16:17;98549.31;;;19.46;66.72
10474;BME280;5284;50.446;7.904;2023-07-13T07:21:20;98544.38;;;19.64;65.48
10474;BME280;5284;50.446;7.904;2023-07-13T07:26:26;98558.09;;;20.06;64.09
10474;BME280;5284;50.446;7.904;2023-07-13T07:31:48;98562.69;;;20.05;63.47
10474;BME280;5284;50.446;7.904;2023-07-13T07:37:11;98558.88;;;20.35;63.06
10474;BME280;5284;50.446;7.904;2023-07-13T07:42:19;98565.50;;;20.32;63.42
10474;BME280;5284;50.446;7.904;2023-07-13T07:47:21;98562.75;;;20.47;63.33
10474;BME280;5284;50.446;7.904;2023-07-13T07:52:25;98565.69;;;20.45;63.39
10474;BME280;5284;50.446;7.904;2023-07-13T07:57:30;98558.97;;;20.62;62.03
10474;BME280;5284;50.446;7.904;2023-07-13T08:02:52;98561.66;;;20.98;60.25
10474;BME280;5284;50.446;7.904;2023-07-13T08:07:58;98577.50;;;21.22;59.37
10474;BME280;5284;50.446;7.904;2023-07-13T08:13:02;98575.78;;;20.93;58.49
10474;BME280;5284;50.446;7.904;2023-07-13T08:18:08;98566.53;;;21.30;58.45
10474;BME280;5284;50.446;7.904;2023-07-13T08:23:11;98564.38;;;21.53;57.48
10474;BME280;5284;50.446;7.904;2023-07-13T08:28:15;98561.78;;;22.06;56.27
10474;BME280;5284;50.446;7.904;2023-07-13T08:33:20;98569.16;;;22.18;55.10
10474;BME280;5284;50.446;7.904;2023-07-13T08:38:25;98566.53;;;22.31;54.84
10474;BME280;5284;50.446;7.904;2023-07-13T08:43:32;98562.38;;;22.42;54.29
10474;BME280;5284;50.446;7.904;2023-07-13T08:48:41;98561.25;;;22.90;53.50
10474;BME280;5284;50.446;7.904;2023-07-13T08:53:47;98573.75;;;22.65;51.90
10474;BME280;5284;50.446;7.904;2023-07-13T08:58:55;98559.56;;;22.95;52.61
10474;BME280;5284;50.446;7.904;2023-07-13T09:04:04;98558.97;;;22.87;53.07
10474;BME280;5284;50.446;7.904;2023-07-13T09:09:20;98555.41;;;22.93;52.54
10474;BME280;5284;50.446;7.904;2023-07-13T09:14:40;98549.34;;;22.97;51.63
10474;BME280;5284;50.446;7.904;2023-07-13T09:19:47;98541.84;;;23.32;52.81
10474;BME280;5284;50.446;7.904;2023-07-13T09:24:57;98545.38;;;23.38;50.72
10474;BME280;5284;50.446;7.904;2023-07-13T09:30:24;98539.53;;;23.29;50.01
10474;BME280;5284;50.446;7.904;2023-07-13T09:35:34;98548.31;;;23.24;48.40
10474;BME280;5284;50.446;7.904;2023-07-13T09:40:44;98558.16;;;23.25;48.16
10474;BME280;5284;50.446;7.904;2023-07-13T09:45:51;98533.22;;;23.54;47.75
10474;BME280;5284;50.446;7.904;2023-07-13T09:50:55;98530.22;;;23.88;46.75
10474;BME280;5284;50.446;7.904;2023-07-13T09:55:59;98543.88;;;24.38;46.66
10474;BME280;5284;50.446;7.904;2023-07-13T10:01:04;98530.84;;;24.53;46.20
10474;BME280;5284;50.446;7.904;2023-07-13T10:06:13;98534.91;;;24.99;44.24
10474;BME280;5284;50.446;7.904;2023-07-13T10:11:18;98537.09;;;24.47;44.62
10474;BME280;5284;50.446;7.904;2023-07-13T10:16:25;98528.72;;;24.49;44.74
10474;BME280;5284;50.446;7.904;2023-07-13T10:21:31;98539.38;;;24.13;44.50
10474;BME280;5284;50.446;7.904;2023-07-13T10:26:39;98536.72;;;24.50;43.44
10474;BME280;5284;50.446;7.904;2023-07-13T10:31:47;98540.91;;;25.14;43.30
10474;BME280;5284;50.446;7.904;2023-07-13T10:36:51;98547.75;;;24.62;43.26
10474;BME280;5284;50.446;7.904;2023-07-13T10:41:58;98541.31;;;24.50;42.83
10474;BME280;5284;50.446;7.904;2023-07-13T10:47:06;98534.91;;;25.30;42.96
10474;BME280;5284;50.446;7.904;2023-07-13T10:57:52;98530.25;;;25.06;43.24
10474;BME280;5284;50.446;7.904;2023-07-13T11:02:57;98537.59;;;24.75;43.41
10474;BME280;5284;50.446;7.904;2023-07-13T11:08:16;98549.38;;;24.76;42.76
10474;BME280;5284;50.446;7.904;2023-07-13T11:13:37;98547.81;;;24.55;42.01
10474;BME280;5284;50.446;7.904;2023-07-13T11:18:47;98544.25;;;24.55;42.94
10474;BME280;5284;50.446;7.904;2023-07-13T11:23:53;98542.78;;;23.95;42.64
10474;BME280;5284;50.446;7.904;2023-07-13T11:28:56;98546.97;;;24.48;42.75
10474;BME280;5284;50.446;7.904;2023-07-13T11:34:00;98548.44;;;24.44;43.28
10474;BME280;5284;50.446;7.904;2023-07-13T11:39:05;98542.78;;;24.02;43.37
10474;BME280;5284;50.446;7.904;2023-07-13T11:44:16;98554.94;;;23.93;43.42
10474;BME280;5284;50.446;7.904;2023-07-13T11:49:23;98553.53;;;23.58;43.32
10474;BME280;5284;50.446;7.904;2023-07-13T11:54:30;98557.75;;;23.41;44.05
10474;BME280;5284;50.446;7.904;2023-07-13T11:59:38;98576.16;;;23.26;44.70
10474;BME280;5284;50.446;7.904;2023-07-13T12:04:44;98575.13;;;23.59;44.96
10474;BME280;5284;50.446;7.904;2023-07-13T12:09:47;98562.75;;;23.83;44.57
10474;BME280;5284;50.446;7.904;2023-07-13T12:14:52;98573.63;;;23.89;44.80
10474;BME280;5284;50.446;7.904;2023-07-13T12:19:57;98567.50;;;24.07;43.77
10474;BME280;5284;50.446;7.904;2023-07-13T12:25:00;98576.44;;;24.27;44.17
10474;BME280;5284;50.446;7.904;2023-07-13T12:30:26;98577.97;;;24.16;44.40
10474;BME280;5284;50.446;7.904;2023-07-13T12:35:31;98577.75;;;24.11;44.12
10474;BME280;5284;50.446;7.904;2023-07-13T12:40:37;98583.44;;;24.10;44.01
10474;BME280;5284;50.446;7.904;2023-07-13T12:45:55;98598.34;;;23.68;45.19
10474;BME280;5284;50.446;7.904;2023-07-13T12:51:00;98586.22;;;23.64;45.07
10474;BME280;5284;50.446;7.904;2023-07-13T12:56:03;98595.25;;;23.84;44.71
10474;BME280;5284;50.446;7.904;2023-07-13T13:01:07;98583.44;;;23.97;44.69
10474;BME280;5284;50.446;7.904;2023-07-13T13:06:22;98589.75;;;24.04;44.24
10474;BME280;5284;50.446;7.904;2023-07-13T13:11:28;98588.88;;;24.03;44.42
10474;BME280;5284;50.446;7.904;2023-07-13T13:16:33;98599.09;;;24.34;44.29
10474;BME280;5284;50.446;7.904;2023-07-13T13:21:38;98595.59;;;24.71;44.70
10474;BME280;5284;50.446;7.904;2023-07-13T13:26:41;98611.00;;;24.52;44.23
10474;BME280;5284;50.446;7.904;2023-07-13T13:31:45;98606.91;;;24.17;44.88
10474;BME280;5284;50.446;7.904;2023-07-13T13:36:50;98615.75;;;24.00;45.05
10474;BME280;5284;50.446;7.904;2023-07-13T13:41:59;98614.47;;;24.02;44.75
10474;BME280;5284;50.446;7.904;2023-07-13T13:47:02;98612.59;;;24.66;43.58
10474;BME280;5284;50.446;7.904;2023-07-13T13:52:09;98615.03;;;24.81;43.82
10474;BME280;5284;50.446;7.904;2023-07-13T13:57:12;98618.16;;;24.34;44.40
10474;BME280;5284;50.446;7.904;2023-07-13T14:02:22;98617.88;;;24.48;44.04
10474;BME280;5284;50.446;7.904;2023-07-13T14:07:28;98617.19;;;24.72;44.26
10474;BME280;5284;50.446;7.904;2023-07-13T14:12:32;98623.34;;;24.55;44.22
10474;BME280;5284;50.446;7.904;2023-07-13T14:17:35;98631.50;;;24.61;44.45
10474;BME280;5284;50.446;7.904;2023-07-13T14:22:45;98621.75;;;24.78;43.73
10474;BME280;5284;50.446;7.904;2023-07-13T14:27:51;98616.34;;;25.09;43.71
10474;BME280;5284;50.446;7.904;2023-07-13T14:32:57;98617.31;;;25.52;42.31
10474;BME280;5284;50.446;7.904;2023-07-13T14:38:01;98630.56;;;26.75;39.99
10474;BME280;5284;50.446;7.904;2023-07-13T14:43:04;98620.13;;;28.69;39.11
10474;BME280;5284;50.446;7.904;2023-07-13T14:48:20;98626.66;;;28.91;37.63
10474;BME280;5284;50.446;7.904;2023-07-13T14:53:26;98617.91;;;27.22;39.58
10474;BME280;5284;50.446;7.904;2023-07-13T14:58:30;98625.25;;;26.63;39.65
10474;BME280;5284;50.446;7.904;2023-07-13T15:03:34;98622.72;;;27.90;38.68
10474;BME280;5284;50.446;7.904;2023-07-13T15:08:41;98624.00;;;28.22;38.86
10474;BME280;5284;50.446;7.904;2023-07-13T15:13:44;98625.75;;;32.61;33.06
10474;BME280;5284;50.446;7.904;2023-07-13T15:18:47;98631.19;;;31.47;34.34
10474;BME280;5284;50.446;7.904;2023-07-13T15:23:52;98627.91;;;30.21;35.18
10474;BME280;5284;50.446;7.904;2023-07-13T15:28:55;98627.78;;;30.92;34.41
10474;BME280;5284;50.446;7.904;2023-07-13T15:33:59;98623.00;;;29.58;36.87
10474;BME280;5284;50.446;7.904;2023-07-13T15:39:04;98620.59;;;33.56;32.02
10474;BME280;5284;50.446;7.904;2023-07-13T15:44:22;98621.94;;;31.89;33.46
10474;BME280;5284;50.446;7.904;2023-07-13T15:49:25;98624.22;;;34.11;32.16
10474;BME280;5284;50.446;7.904;2023-07-13T15:54:30;98614.59;;;32.93;31.88
10474;BME280;5284;50.446;7.904;2023-07-13T15:59:34;98615.09;;;33.91;32.00
10474;BME280;5284;50.446;7.904;2023-07-13T16:04:37;98610.09;;;36.55;30.58
10474;BME280;5284;50.446;7.904;2023-07-13T16:09:42;98606.47;;;33.52;32.19
10474;BME280;5284;50.446;7.904;2023-07-13T16:14:45;98604.88;;;30.87;34.89
10474;BME280;5284;50.446;7.904;2023-07-13T16:19:48;98595.50;;;29.74;36.25
10474;BME280;5284;50.446;7.904;2023-07-13T16:24:52;98605.78;;;34.85;30.58
10474;BME280;5284;50.446;7.904;2023-07-13T16:29:57;98610.50;;;37.13;29.11
10474;BME280;5284;50.446;7.904;2023-07-13T16:35:00;98607.25;;;36.08;29.21
10474;BME280;5284;50.446;7.904;2023-07-13T16:40:19;98605.41;;;36.22;29.25
10474;BME280;5284;50.446;7.904;2023-07-13T16:45:25;98602.91;;;36.49;29.01
10474;BME280;5284;50.446;7.904;2023-07-13T16:50:30;98614.78;;;36.31;29.36
10474;BME280;5284;50.446;7.904;2023-07-13T16:55:35;98613.34;;;37.50;28.71
10474;BME280;5284;50.446;7.904;2023-07-13T17:00:38;98604.50;;;38.31;27.14
10474;BME280;5284;50.446;7.904;2023-07-13T17:05:43;98611.75;;;35.55;29.98
10474;BME280;5284;50.446;7.904;2023-07-13T17:10:48;98613.75;;;36.97;28.42
10474;BME280;5284;50.446;7.904;2023-07-13T17:15:52;98603.50;;;32.88;32.31
10474;BME280;5284;50.446;7.904;2023-07-13T17:20:57;98595.75;;;29.56;36.23
10474;BME280;5284;50.446;7.904;2023-07-13T17:26:02;98594.72;;;29.01;36.30
10474;BME280;5284;50.446;7.904;2023-07-13T17:31:09;98602.56;;;30.41;35.19
10474;BME280;5284;50.446;7.904;2023-07-13T17:36:15;98598.97;;;31.26;34.59
10474;BME280;5284;50.446;7.904;2023-07-13T17:41:20;98592.91;;;30.00;36.46
10474;BME280;5284;50.446;7.904;2023-07-13T17:46:27;98591.69;;;28.35;38.05
10474;BME280;5284;50.446;7.904;2023-07-13T17:51:31;98596.41;;;27.48;39.45
10474;BME280;5284;50.446;7.904;2023-07-13T17:56:35;98605.84;;;26.10;41.20
10474;BME280;5284;50.446;7.904;2023-07-13T18:01:38;98606.47;;;25.63;42.39
10474;BME280;5284;50.446;7.904;2023-07-13T18:06:44;98607.69;;;25.18;43.20
10474;BME280;5284;50.446;7.904;2023-07-13T18:11:56;98601.81;;;24.34;45.09
10474;BME280;5284;50.446;7.904;2023-07-13T18:17:00;98600.84;;;24.09;45.59
10474;BME280;5284;50.446;7.904;2023-07-13T18:22:10;98596.25;;;23.90;45.71
10474;BME280;5284;50.446;7.904;2023-07-13T18:27:14;98603.22;;;23.53;47.28
10474;BME280;5284;50.446;7.904;2023-07-13T18:32:20;98604.47;;;23.38;47.53
10474;BME280;5284;50.446;7.904;2023-07-13T18:37:23;98611.09;;;23.10;48.34
10474;BME280;5284;50.446;7.904;2023-07-13T18:42:27;98606.88;;;22.88;48.53
10474;BME280;5284;50.446;7.904;2023-07-13T18:47:30;98618.13;;;22.72;48.67
10474;BME280;5284;50.446;7.904;2023-07-13T18:52:36;98620.16;;;22.50;49.83
10474;BME280;5284;50.446;7.904;2023-07-13T18:57:42;98623.34;;;22.26;50.06
10474;BME280;5284;50.446;7.904;2023-07-13T19:02:46;98624.72;;;22.09;51.15
10474;BME280;5284;50.446;7.904;2023-07-13T19:07:49;98633.19;;;21.93;52.21
10474;BME280;5284;50.446;7.904;2023-07-13T19:12:55;98637.22;;;21.70;56.13
10474;BME280;5284;50.446;7.904;2023-07-13T19:18:01;98649.53;;;21.24;60.50
10474;BME280;5284;50.446;7.904;2023-07-13T19:23:17;98648.00;;;21.15;60.29
10474;BME280;5284;50.446;7.904;2023-07-13T19:28:28;98658.91;;;21.01;61.24
10474;BME280;5284;50.446;7.904;2023-07-13T19:33:33;98662.13;;;20.75;61.32
10474;BME280;5284;50.446;7.904;2023-07-13T19:38:36;98669.84;;;20.57;63.50
10474;BME280;5284;50.446;7.904;2023-07-13T19:43:40;98672.09;;;20.39;64.98
10474;BME280;5284;50.446;7.904;2023-07-13T19:48:43;98685.84;;;20.09;68.88
10474;BME280;5284;50.446;7.904;2023-07-13T19:53:46;98691.69;;;19.98;68.21
10474;BME280;5284;50.446;7.904;2023-07-13T19:58:51;98693.38;;;19.85;69.59
10474;BME280;5284;50.446;7.904;2023-07-13T20:03:54;98702.78;;;19.74;68.76
10474;BME280;5284;50.446;7.904;2023-07-13T20:08:58;98706.84;;;19.56;71.08
10474;BME280;5284;50.446;7.904;2023-07-13T20:14:19;98711.38;;;19.41;75.09
10474;BME280;5284;50.446;7.904;2023-07-13T20:19:22;98714.19;;;19.25;74.15
10474;BME280;5284;50.446;7.904;2023-07-13T20:24:26;98717.44;;;19.12;78.45
10474;BME280;5284;50.446;7.904;2023-07-13T20:29:30;98723.69;;;18.90;80.80
10474;BME280;5284;50.446;7.904;2023-07-13T20:34:36;98719.22;;;18.75;82.30
10474;BME280;5284;50.446;7.904;2023-07-13T20:39:40;98718.09;;;18.61;81.59
10474;BME280;5284;50.446;7.904;2023-07-13T20:44:44;98713.00;;;18.28;86.05
10474;BME280;5284;50.446;7.904;2023-07-13T20:49:47;98713.53;;;18.08;87.85
10474;BME280;5284;50.446;7.904;2023-07-13T20:54:54;98716.47;;;17.82;92.31
10474;BME280;5284;50.446;7.904;2023-07-13T20:59:59;98716.16;;;17.77;92.72
10474;BME280;5284;50.446;7.904;2023-07-13T21:05:17;98723.91;;;17.72;89.32
10474;BME280;5284;50.446;7.904;2023-07-13T21:10:23;98729.50;;;17.55;89.30
10474;BME280;5284;50.446;7.904;2023-07-13T21:15:30;98732.50;;;17.36;89.57
10474;BME280;5284;50.446;7.904;2023-07-13T21:20:36;98741.41;;;17.20;93.10
10474;BME280;5284;50.446;7.904;2023-07-13T21:25:41;98735.47;;;17.01;93.32
10474;BME280;5284;50.446;7.904;2023-07-13T21:30:45;98752.97;;;16.89;94.11
10474;BME280;5284;50.446;7.904;2023-07-13T21:35:50;98742.81;;;16.83;91.56
10474;BME280;5284;50.446;7.904;2023-07-13T21:40:57;98748.03;;;16.69;93.09
10474;BME280;5284;50.446;7.904;2023-07-13T21:46:03;98746.78;;;16.55;97.74
10474;BME280;5284;50.446;7.904;2023-07-13T21:51:16;98760.38;;;16.46;96.79
10474;BME280;5284;50.446;7.904;2023-07-13T21:56:20;98756.97;;;16.36;96.54
10474;BME280;5284;50.446;7.904;2023-07-13T22:01:29;98762.59;;;16.25;97.14
10474;BME280;5284;50.446;7.904;2023-07-13T22:06:34;98758.53;;;16.21;98.06
10474;BME280;5284;50.446;7.904;2023-07-13T22:11:37;98759.66;;;16.10;99.58
10474;BME280;5284;50.446;7.904;2023-07-13T22:16:41;98763.47;;;16.00;100.00
10474;BME280;5284;50.446;7.904;2023-07-13T22:21:45;98759.38;;;15.96;98.29
10474;BME280;5284;50.446;7.904;2023-07-13T22:26:49;98762.66;;;15.82;100.00
10474;BME280;5284;50.446;7.904;2023-07-13T22:31:53;98762.38;;;15.67;100.00
10474;BME280;5284;50.446;7.904;2023-07-13T22:36:56;98761.16;;;15.62;100.00
10474;BME280;5284;50.446;7.904;2023-07-13T22:41:58;98762.66;;;15.56;100.00
10474;BME280;5284;50.446;7.904;2023-07-13T22:47:03;98761.78;;;15.56;100.00
10474;BME280;5284;50.446;7.904;2023-07-13T22:52:10;98763.41;;;15.49;100.00
10474;BME280;5284;50.446;7.904;2023-07-13T22:57:13;98759.91;;;15.48;100.00
10474;BME280;5284;50.446;7.904;2023-07-13T23:02:18;98763.34;;;15.41;100.00
10474;BME280;5284;50.446;7.904;2023-07-13T23:07:21;98761.47;;;15.24;100.00
10474;BME280;5284;50.446;7.904;2023-07-13T23:12:26;98765.56;;;15.28;100.00
10474;BME280;5284;50.446;7.904;2023-07-13T23:17:33;98761.78;;;15.21;100.00
10474;BME280;5284;50.446;7.904;2023-07-13T23:22:36;98757.78;;;15.08;100.00
10474;BME280;5284;50.446;7.904;2023-07-13T23:27:39;98752.34;;;15.00;100.00
10474;BME280;5284;50.446;7.904;2023-07-13T23:32:43;98748.72;;;14.91;100.00
10474;BME280;5284;50.446;7.904;2023-07-13T23:37:49;98741.59;;;14.82;100.00
10474;BME280;5284;50.446;7.904;2023-07-13T23:42:52;98732.91;;;14.71;100.00
10474;BME280;5284;50.446;7.904;2023-07-13T23:47:57;98726.06;;;14.59;100.00
10474;BME280;5284;50.446;7.904;2023-07-13T23:53:02;98721.59;;;14.50;100.00
10474;BME280;5284;50.446;7.904;2023-07-13T23:58:04;98720.34;;;14.44;100.00
